createdAt,value
2019-02-07T00:00:15.122Z,18.10
2019-02-07T00:02:43.776Z,15.00
2019-02-07T00:05:12.484Z,17.77
2019-02-07T00:07:41.144Z,14.37
2019-02-07T00:10:13.111Z,12.63
2019-02-07T00:12:41.698Z,15.63
2019-02-07T00:15:11.795Z,15.10
2019-02-07T00:17:40.453Z,17.33
2019-02-07T00:20:14.676Z,14.30
2019-02-07T00:22:43.332Z,18.47
2019-02-07T00:25:12.172Z,28.50
2019-02-07T00:27:40.768Z,24.83
2019-02-07T00:30:18.219Z,19.90
2019-02-07T00:32:46.811Z,20.10
2019-02-07T00:35:15.367Z,24.17
2019-02-07T00:37:43.965Z,21.63
2019-02-07T00:40:15.012Z,21.47
2019-02-07T00:42:44.036Z,16.97
2019-02-07T00:45:14.955Z,19.27
2019-02-07T00:47:43.592Z,16.80
2019-02-07T00:50:16.496Z,16.83
2019-02-07T00:52:45.403Z,22.63
2019-02-07T00:55:18.349Z,21.80
2019-02-07T00:57:47.179Z,23.83
2019-02-07T01:00:24.624Z,26.17
2019-02-07T01:02:53.628Z,22.97
2019-02-07T01:05:23.633Z,20.70
2019-02-07T01:07:52.867Z,19.63
2019-02-07T01:10:29.513Z,20.93
2019-02-07T01:12:58.439Z,19.77
2019-02-07T01:15:28.942Z,15.47
2019-02-07T01:17:57.578Z,19.73
2019-02-07T01:20:26.327Z,17.33
2019-02-07T01:22:55.444Z,21.40
2019-02-07T01:25:24.876Z,21.73
2019-02-07T01:27:53.783Z,20.73
2019-02-07T01:30:24.771Z,20.33
2019-02-07T01:32:53.718Z,22.40
2019-02-07T01:35:22.380Z,22.07
2019-02-07T01:37:51.387Z,20.23
2019-02-07T01:40:21.318Z,16.07
2019-02-07T01:42:50.023Z,23.00
2019-02-07T01:45:20.718Z,16.57
2019-02-07T01:47:50.487Z,19.87
2019-02-07T01:50:24.395Z,19.47
2019-02-07T01:52:53.343Z,14.47
2019-02-07T01:55:22.364Z,16.50
2019-02-07T01:57:51.205Z,18.13
2019-02-07T02:00:20.527Z,18.40
2019-02-07T02:02:49.799Z,16.13
2019-02-07T02:05:21.916Z,15.13
2019-02-07T02:07:51.524Z,18.37
2019-02-07T02:10:25.373Z,17.93
2019-02-07T02:12:53.944Z,19.43
2019-02-07T02:15:25.015Z,13.77
2019-02-07T02:17:53.425Z,12.47
2019-02-07T02:20:24.765Z,16.63
2019-02-07T02:22:54.776Z,18.40
2019-02-07T02:25:23.432Z,15.13
2019-02-07T02:27:52.276Z,18.53
2019-02-07T02:30:29.528Z,20.00
2019-02-07T02:32:58.091Z,19.20
2019-02-07T02:35:26.679Z,18.70
2019-02-07T02:37:55.327Z,18.60
2019-02-07T02:40:23.916Z,15.93
2019-02-07T02:42:52.557Z,20.20
2019-02-07T02:45:22.792Z,16.97
2019-02-07T02:47:52.194Z,18.20
2019-02-07T02:50:21.424Z,17.33
2019-02-07T02:52:50.076Z,19.03
2019-02-07T02:55:20.309Z,17.93
2019-02-07T02:57:48.882Z,17.00
2019-02-07T03:00:19.572Z,18.40
2019-02-07T03:02:52.734Z,18.93
2019-02-07T03:05:38.229Z,19.63
2019-02-07T03:08:24.889Z,18.37
2019-02-07T03:11:10.334Z,21.90
2019-02-07T03:13:43.245Z,19.20
2019-02-07T03:16:16.201Z,19.73
2019-02-07T03:18:52.436Z,21.77
2019-02-07T03:21:34.916Z,20.90
2019-02-07T03:24:14.106Z,19.40
2019-02-07T03:26:59.074Z,17.67
2019-02-07T03:29:35.045Z,19.77
2019-02-07T03:32:24.458Z,20.60
2019-02-07T03:34:54.668Z,17.50
2019-02-07T03:37:25.206Z,16.50
2019-02-07T03:39:57.924Z,17.03
2019-02-07T03:42:37.249Z,16.33
2019-02-07T03:45:18.383Z,13.97
2019-02-07T03:48:04.770Z,20.13
2019-02-07T03:50:41.004Z,13.50
2019-02-07T03:53:26.301Z,13.50
2019-02-07T03:56:02.688Z,19.27
2019-02-07T03:58:49.057Z,15.63
2019-02-07T04:01:19.298Z,18.67
2019-02-07T04:03:49.806Z,14.97
2019-02-07T04:06:23.002Z,17.20
2019-02-07T04:08:55.621Z,14.47
2019-02-07T04:11:25.924Z,10.17
2019-02-07T04:13:56.212Z,8.93
2019-02-07T04:16:42.966Z,7.47
2019-02-07T04:19:19.004Z,10.83
2019-02-07T04:21:54.845Z,11.30
2019-02-07T04:24:31.545Z,8.00
2019-02-07T04:27:13.905Z,9.10
2019-02-07T04:29:44.114Z,15.53
2019-02-07T04:32:14.350Z,10.43
2019-02-07T04:34:47.677Z,16.83
2019-02-07T04:37:17.910Z,16.30
2019-02-07T04:39:48.189Z,17.37
2019-02-07T04:42:24.548Z,15.93
2019-02-07T04:44:57.342Z,15.87
2019-02-07T04:47:27.568Z,14.67
2019-02-07T04:49:57.780Z,16.73
2019-02-07T04:52:44.490Z,16.00
2019-02-07T04:55:14.701Z,16.17
2019-02-07T04:58:00.050Z,14.83
2019-02-07T05:00:33.208Z,15.20
2019-02-07T05:03:18.680Z,15.43
2019-02-07T05:05:51.945Z,15.37
2019-02-07T05:08:31.126Z,15.70
2019-02-07T05:11:07.044Z,13.10
2019-02-07T05:13:53.520Z,16.60
2019-02-07T05:16:26.224Z,16.10
2019-02-07T05:18:59.168Z,16.83
2019-02-07T05:21:46.010Z,15.17
2019-02-07T05:24:28.500Z,15.53
2019-02-07T05:27:14.120Z,14.60
2019-02-07T05:29:46.986Z,15.43
2019-02-07T05:32:36.298Z,15.40
2019-02-07T05:35:18.485Z,17.33
2019-02-07T05:37:49.716Z,15.07
2019-02-07T05:40:20.132Z,16.23
2019-02-07T05:43:02.401Z,15.90
2019-02-07T05:45:41.597Z,15.77
2019-02-07T05:48:20.594Z,14.73
2019-02-07T05:51:00.137Z,14.57
2019-02-07T05:53:33.339Z,14.37
2019-02-07T05:56:06.710Z,14.63
2019-02-07T05:58:49.405Z,13.53
2019-02-07T06:01:19.776Z,12.50
2019-02-07T06:03:52.737Z,12.40
2019-02-07T06:06:22.985Z,11.33
2019-02-07T06:09:08.590Z,7.40
2019-02-07T06:11:53.971Z,6.47
2019-02-07T06:14:42.272Z,6.17
2019-02-07T06:17:21.353Z,12.53
2019-02-07T06:20:09.987Z,15.90
2019-02-07T06:22:58.589Z,14.00
2019-02-07T06:25:35.076Z,12.07
2019-02-07T06:28:14.040Z,12.27
2019-02-07T06:30:44.553Z,14.10
2019-02-07T06:33:20.696Z,14.93
2019-02-07T06:35:50.926Z,12.83
2019-02-07T06:38:23.824Z,14.30
2019-02-07T06:41:06.178Z,12.50
2019-02-07T06:43:39.108Z,11.43
2019-02-07T06:46:09.313Z,11.93
2019-02-07T06:48:48.336Z,7.27
2019-02-07T06:51:18.549Z,13.00
2019-02-07T06:54:04.094Z,11.80
2019-02-07T06:56:50.841Z,12.97
2019-02-07T06:59:27.208Z,13.90
2019-02-07T07:02:14.097Z,12.67
2019-02-07T07:04:56.425Z,14.03
2019-02-07T07:07:43.376Z,13.43
2019-02-07T07:10:14.730Z,11.00
2019-02-07T07:12:47.877Z,13.67
2019-02-07T07:15:18.088Z,10.63
2019-02-07T07:17:48.529Z,12.27
2019-02-07T07:20:18.733Z,9.70
2019-02-07T07:22:54.693Z,12.53
2019-02-07T07:25:41.136Z,11.67
2019-02-07T07:28:23.244Z,9.80
2019-02-07T07:30:55.920Z,12.80
2019-02-07T07:33:35.216Z,13.63
2019-02-07T07:36:21.672Z,12.10
2019-02-07T07:38:51.905Z,11.67
2019-02-07T07:41:22.120Z,10.10
2019-02-07T07:43:55.473Z,9.73
2019-02-07T07:46:38.010Z,8.57
2019-02-07T07:49:24.595Z,11.03
2019-02-07T07:51:57.641Z,8.97
2019-02-07T07:54:28.072Z,10.07
2019-02-07T07:57:00.697Z,9.83
2019-02-07T07:59:30.924Z,9.20
2019-02-07T08:02:16.271Z,11.07
2019-02-07T08:04:46.956Z,9.23
2019-02-07T08:07:23.289Z,10.93
2019-02-07T08:09:59.229Z,10.90
2019-02-07T08:12:32.486Z,9.87
2019-02-07T08:15:05.956Z,8.47
2019-02-07T08:17:47.346Z,10.40
2019-02-07T08:20:30.490Z,8.60
2019-02-07T08:23:00.715Z,8.47
2019-02-07T08:25:39.640Z,7.73
2019-02-07T08:28:09.869Z,8.57
2019-02-07T08:30:55.156Z,9.33
2019-02-07T08:33:41.884Z,7.63
2019-02-07T08:36:27.172Z,8.47
2019-02-07T08:39:00.192Z,7.40
2019-02-07T08:41:46.656Z,8.73
2019-02-07T08:44:31.945Z,9.67
2019-02-07T08:47:02.161Z,7.53
2019-02-07T08:49:41.781Z,7.63
2019-02-07T08:52:12.057Z,9.87
2019-02-07T08:54:54.289Z,8.30
2019-02-07T08:57:39.504Z,6.93
2019-02-07T09:00:15.464Z,8.17
2019-02-07T09:02:51.800Z,8.17
2019-02-07T09:05:37.352Z,8.50
2019-02-07T09:08:23.936Z,9.40
2019-02-07T09:11:09.234Z,8.87
2019-02-07T09:13:39.565Z,8.13
2019-02-07T09:16:15.512Z,9.57
2019-02-07T09:19:03.573Z,8.37
2019-02-07T09:21:34.185Z,7.33
2019-02-07T09:24:19.129Z,8.63
2019-02-07T09:27:04.281Z,8.67
2019-02-07T09:29:51.090Z,8.83
2019-02-07T09:32:21.301Z,9.07
2019-02-07T09:35:07.561Z,6.90
2019-02-07T09:37:38.172Z,8.37
2019-02-07T09:40:11.013Z,9.47
2019-02-07T09:42:47.206Z,8.70
2019-02-07T09:45:24.970Z,10.57
2019-02-07T09:48:01.130Z,8.87
2019-02-07T09:50:37.750Z,7.53
2019-02-07T09:53:23.536Z,7.90
2019-02-07T09:55:54.196Z,8.03
2019-02-07T09:58:41.133Z,7.37
2019-02-07T10:01:17.104Z,6.63
2019-02-07T10:04:03.719Z,7.10
2019-02-07T10:06:33.924Z,8.60
2019-02-07T10:09:04.177Z,9.07
2019-02-07T10:11:34.385Z,9.80
2019-02-07T10:14:07.748Z,6.70
2019-02-07T10:16:43.797Z,6.20
2019-02-07T10:19:19.815Z,7.50
2019-02-07T10:21:52.720Z,9.50
2019-02-07T10:24:25.961Z,7.67
2019-02-07T10:26:56.277Z,8.40
2019-02-07T10:29:42.696Z,8.43
2019-02-07T10:32:18.368Z,8.23
2019-02-07T10:34:51.332Z,7.40
2019-02-07T10:37:23.087Z,7.63
2019-02-07T10:39:53.308Z,8.37
2019-02-07T10:42:38.640Z,7.73
2019-02-07T10:45:17.666Z,7.70
2019-02-07T10:48:02.785Z,8.60
2019-02-07T10:50:45.290Z,12.33
2019-02-07T10:53:31.689Z,11.43
2019-02-07T10:56:01.920Z,7.73
2019-02-07T10:58:50.081Z,8.93
2019-02-07T11:01:36.558Z,9.03
2019-02-07T11:04:13.378Z,9.73
2019-02-07T11:06:52.237Z,8.47
2019-02-07T11:09:38.857Z,7.97
2019-02-07T11:12:21.392Z,9.30
2019-02-07T11:15:03.504Z,8.93
2019-02-07T11:17:40.402Z,9.07
2019-02-07T11:20:27.513Z,11.47
2019-02-07T11:23:03.708Z,9.97
2019-02-07T11:25:36.894Z,9.50
2019-02-07T11:28:10.597Z,8.53
2019-02-07T11:30:42.009Z,12.10
2019-02-07T11:33:12.353Z,9.70
2019-02-07T11:35:58.941Z,12.50
2019-02-07T11:38:38.104Z,10.07
2019-02-07T11:41:16.946Z,11.60
2019-02-07T11:43:56.157Z,10.73
2019-02-07T11:46:26.388Z,14.30
2019-02-07T11:49:06.884Z,11.10
2019-02-07T11:51:37.104Z,10.23
2019-02-07T11:54:22.571Z,11.83
2019-02-07T11:57:09.265Z,11.90
2019-02-07T11:59:41.944Z,11.80
2019-02-07T12:02:16.844Z,12.97
2019-02-07T12:04:48.593Z,12.43
2019-02-07T12:07:33.803Z,11.77
2019-02-07T12:10:20.212Z,11.47
2019-02-07T12:12:50.428Z,11.80
2019-02-07T12:15:26.371Z,11.83
2019-02-07T12:17:59.313Z,13.03
2019-02-07T12:20:35.352Z,12.67
2019-02-07T12:23:08.697Z,11.67
2019-02-07T12:25:42.084Z,12.43
2019-02-07T12:28:30.425Z,12.83
2019-02-07T12:31:18.894Z,10.67
2019-02-07T12:33:56.257Z,12.30
2019-02-07T12:36:38.649Z,13.13
2019-02-07T12:39:10.294Z,13.43
2019-02-07T12:41:43.229Z,15.87
2019-02-07T12:44:27.412Z,12.57
2019-02-07T12:47:15.432Z,13.20
2019-02-07T12:50:00.933Z,14.33
2019-02-07T12:52:36.759Z,14.70
2019-02-07T12:55:12.600Z,13.93
2019-02-07T12:57:51.723Z,11.90
2019-02-07T13:00:33.967Z,13.73
2019-02-07T13:03:20.778Z,10.97
2019-02-07T13:06:07.494Z,12.57
2019-02-07T13:08:40.706Z,11.70
2019-02-07T13:11:15.168Z,13.47
2019-02-07T13:13:45.390Z,10.30
2019-02-07T13:16:24.430Z,11.87
2019-02-07T13:18:57.709Z,13.33
2019-02-07T13:21:28.071Z,11.80
2019-02-07T13:24:14.628Z,14.53
2019-02-07T13:26:44.830Z,11.83
2019-02-07T13:29:15.017Z,12.63
2019-02-07T13:31:57.264Z,15.00
2019-02-07T13:34:42.309Z,13.47
2019-02-07T13:37:15.709Z,11.93
2019-02-07T13:40:01.954Z,13.47
2019-02-07T13:42:48.108Z,12.00
2019-02-07T13:45:22.373Z,13.53
2019-02-07T13:47:55.786Z,12.47
2019-02-07T13:50:37.733Z,14.07
2019-02-07T13:53:10.547Z,11.53
2019-02-07T13:55:55.768Z,11.57
2019-02-07T13:58:37.979Z,14.97
2019-02-07T14:01:08.218Z,11.87
2019-02-07T14:03:54.588Z,13.13
2019-02-07T14:06:39.546Z,10.27
2019-02-07T14:09:21.269Z,13.33
2019-02-07T14:11:54.176Z,14.10
2019-02-07T14:14:40.576Z,14.20
2019-02-07T14:17:10.809Z,12.30
2019-02-07T14:20:03.244Z,14.13
2019-02-07T14:22:41.640Z,13.63
2019-02-07T14:25:23.812Z,13.67
2019-02-07T14:28:10.494Z,13.53
2019-02-07T14:30:46.488Z,13.73
2019-02-07T14:33:25.528Z,15.87
2019-02-07T14:36:12.245Z,15.67
2019-02-07T14:38:58.732Z,14.80
2019-02-07T14:41:28.964Z,13.83
2019-02-07T14:43:59.199Z,14.23
2019-02-07T14:46:29.425Z,16.57
2019-02-07T14:48:58.066Z,13.70
2019-02-07T14:51:26.640Z,14.90
2019-02-07T14:53:55.232Z,15.97
2019-02-07T14:56:23.800Z,15.63
2019-02-07T14:58:52.593Z,16.73
2019-02-07T15:01:21.165Z,13.50
2019-02-07T15:03:49.756Z,14.67
2019-02-07T15:06:18.328Z,13.63
2019-02-07T15:08:46.988Z,16.30
2019-02-07T15:11:15.628Z,14.07
2019-02-07T15:13:44.620Z,15.50
2019-02-07T15:16:13.194Z,15.17
2019-02-07T15:18:41.780Z,14.93
2019-02-07T15:21:10.352Z,15.50
2019-02-07T15:23:38.945Z,15.47
2019-02-07T15:26:07.782Z,17.80
2019-02-07T15:28:36.377Z,16.63
2019-02-07T15:31:05.411Z,15.10
2019-02-07T15:33:34.005Z,18.23
2019-02-07T15:36:02.584Z,17.93
2019-02-07T15:38:31.194Z,16.00
2019-02-07T15:40:59.749Z,18.07
2019-02-07T15:43:28.583Z,19.20
2019-02-07T15:45:57.220Z,18.13
2019-02-07T15:48:25.824Z,17.50
2019-02-07T15:50:54.392Z,19.63
2019-02-07T15:53:23.124Z,17.97
2019-02-07T15:55:51.692Z,18.63
2019-02-07T15:58:21.926Z,18.93
2019-02-07T16:00:57.741Z,19.47
2019-02-07T16:03:27.977Z,17.43
2019-02-07T16:05:56.554Z,19.73
2019-02-07T16:08:25.145Z,20.60
2019-02-07T16:10:53.720Z,19.33
2019-02-07T16:13:22.378Z,20.63
2019-02-07T16:15:51.348Z,20.17
2019-02-07T16:18:19.940Z,21.67
2019-02-07T16:20:49.261Z,18.67
2019-02-07T16:23:18.005Z,16.30
2019-02-07T16:25:46.576Z,19.67
2019-02-07T16:28:15.173Z,19.47
2019-02-07T16:30:44.212Z,18.37
2019-02-07T16:33:12.995Z,18.13
2019-02-07T16:35:41.620Z,17.67
2019-02-07T16:38:10.317Z,20.37
2019-02-07T16:40:38.889Z,17.30
2019-02-07T16:43:07.536Z,16.33
2019-02-07T16:45:36.108Z,19.00
2019-02-07T16:48:05.242Z,21.67
2019-02-07T16:50:35.248Z,24.37
2019-02-07T16:53:04.012Z,18.17
2019-02-07T16:55:32.584Z,22.90
2019-02-07T16:58:01.190Z,20.23
2019-02-07T17:00:32.300Z,19.37
2019-02-07T17:03:01.143Z,19.50
2019-02-07T17:05:29.712Z,18.87
2019-02-07T17:07:58.375Z,20.03
2019-02-07T17:10:30.257Z,17.23
2019-02-07T17:12:58.917Z,18.17
2019-02-07T17:15:27.924Z,13.93
2019-02-07T17:17:56.717Z,17.13
2019-02-07T17:20:27.996Z,17.73
2019-02-07T17:22:57.328Z,18.03
2019-02-07T17:25:27.036Z,16.50
2019-02-07T17:27:55.700Z,16.53
2019-02-07T17:30:24.341Z,20.00
2019-02-07T17:32:53.368Z,19.23
2019-02-07T17:35:28.155Z,17.07
2019-02-07T17:37:56.728Z,20.17
2019-02-07T17:40:26.637Z,17.33
2019-02-07T17:42:55.368Z,17.73
2019-02-07T17:45:28.244Z,20.93
2019-02-07T17:47:57.333Z,15.20
2019-02-07T17:50:31.555Z,18.47
2019-02-07T17:53:01.685Z,20.93
2019-02-07T17:55:30.257Z,15.93
2019-02-07T17:57:58.920Z,17.57
2019-02-07T18:00:41.269Z,18.40
2019-02-07T18:03:10.000Z,19.87
2019-02-07T18:05:38.572Z,18.93
2019-02-07T18:08:08.219Z,21.37
2019-02-07T18:10:36.852Z,18.13
2019-02-07T18:13:05.816Z,17.30
2019-02-07T18:15:34.696Z,17.37
2019-02-07T18:18:03.247Z,17.13
2019-02-07T18:20:31.904Z,16.33
2019-02-07T18:23:00.476Z,18.30
2019-02-07T18:25:29.144Z,16.27
2019-02-07T18:27:57.718Z,17.93
2019-02-07T18:30:26.607Z,20.10
2019-02-07T18:32:55.181Z,13.53
2019-02-07T18:35:23.937Z,16.60
2019-02-07T18:37:52.509Z,16.07
2019-02-07T18:40:26.833Z,15.13
2019-02-07T18:42:55.821Z,16.70
2019-02-07T18:45:25.041Z,19.00
2019-02-07T18:47:54.034Z,18.83
2019-02-07T18:50:28.750Z,19.20
2019-02-07T18:52:57.320Z,16.97
2019-02-07T18:55:26.048Z,20.83
2019-02-07T18:57:54.621Z,21.20
2019-02-07T19:00:31.781Z,19.20
2019-02-07T19:03:00.596Z,20.07
2019-02-07T19:05:29.257Z,17.90
2019-02-07T19:07:57.910Z,17.50
2019-02-07T19:10:28.443Z,20.80
2019-02-07T19:12:57.517Z,19.10
2019-02-07T19:15:35.036Z,16.93
2019-02-07T19:18:03.608Z,17.93
2019-02-07T19:20:32.205Z,15.23
2019-02-07T19:23:00.773Z,16.97
2019-02-07T19:25:29.512Z,16.43
2019-02-07T19:27:58.561Z,13.87
2019-02-07T19:30:32.706Z,19.27
2019-02-07T19:33:01.423Z,19.10
2019-02-07T19:35:30.076Z,15.97
2019-02-07T19:37:58.651Z,15.83
2019-02-07T19:40:27.245Z,17.30
2019-02-07T19:42:56.286Z,18.03
2019-02-07T19:45:26.616Z,14.70
2019-02-07T19:47:55.188Z,20.30
2019-02-07T19:50:28.708Z,19.60
2019-02-07T19:52:57.756Z,16.83
2019-02-07T19:55:31.252Z,21.93
2019-02-07T19:57:59.893Z,17.87
2019-02-07T20:00:31.493Z,17.30
2019-02-07T20:03:01.198Z,19.23
2019-02-07T20:05:29.956Z,17.20
2019-02-07T20:07:58.524Z,18.27
2019-02-07T20:10:30.797Z,18.77
2019-02-07T20:12:59.644Z,18.03
2019-02-07T20:15:36.733Z,16.80
2019-02-07T20:18:07.181Z,18.33
2019-02-07T20:20:35.856Z,17.23
2019-02-07T20:23:04.564Z,20.03
2019-02-07T20:25:33.162Z,14.90
2019-02-07T20:28:02.107Z,20.17
2019-02-07T20:30:33.307Z,20.00
2019-02-07T20:33:02.221Z,19.07
2019-02-07T20:35:30.993Z,15.37
2019-02-07T20:37:59.627Z,18.30
2019-02-07T20:40:29.258Z,17.37
2019-02-07T20:42:58.156Z,19.93
2019-02-07T20:45:26.893Z,19.53
2019-02-07T20:47:55.932Z,23.47
2019-02-07T20:50:29.285Z,19.93
2019-02-07T20:52:57.991Z,24.80
2019-02-07T20:55:27.220Z,21.97
2019-02-07T20:57:56.723Z,22.70
2019-02-07T21:00:31.700Z,17.63
2019-02-07T21:03:00.408Z,16.13
2019-02-07T21:05:31.041Z,17.87
2019-02-07T21:08:00.052Z,17.77
2019-02-07T21:10:36.955Z,18.40
2019-02-07T21:13:06.464Z,16.83
2019-02-07T21:15:35.699Z,18.00
2019-02-07T21:18:05.001Z,18.60
2019-02-07T21:20:33.732Z,21.70
2019-02-07T21:23:02.377Z,22.07
2019-02-07T21:25:36.596Z,20.10
2019-02-07T21:28:06.710Z,19.70
2019-02-07T21:30:35.344Z,21.57
2019-02-07T21:33:04.305Z,22.93
2019-02-07T21:35:32.872Z,19.57
2019-02-07T21:38:01.464Z,24.83
2019-02-07T21:40:31.104Z,22.67
2019-02-07T21:43:00.641Z,24.57
2019-02-07T21:45:30.044Z,21.37
2019-02-07T21:47:59.877Z,20.07
2019-02-07T21:50:32.627Z,19.27
2019-02-07T21:53:01.280Z,22.23
2019-02-07T21:55:34.924Z,20.57
2019-02-07T21:58:03.784Z,21.57
2019-02-07T22:00:34.900Z,21.63
2019-02-07T22:03:04.124Z,17.20
2019-02-07T22:05:32.699Z,22.80
2019-02-07T22:08:01.344Z,19.30
2019-02-07T22:10:29.968Z,18.30
2019-02-07T22:12:58.561Z,22.93
2019-02-07T22:15:28.368Z,17.97
2019-02-07T22:17:56.976Z,19.60
2019-02-07T22:20:27.865Z,20.23
2019-02-07T22:22:57.392Z,21.17
2019-02-07T22:25:26.033Z,18.30
2019-02-07T22:27:54.700Z,21.00
2019-02-07T22:30:31.780Z,20.40
2019-02-07T22:33:00.504Z,20.57
2019-02-07T22:35:29.512Z,21.23
2019-02-07T22:37:58.247Z,23.20
2019-02-07T22:40:26.952Z,18.27
2019-02-07T22:42:56.023Z,19.57
2019-02-07T22:45:26.440Z,19.73
2019-02-07T22:47:55.027Z,19.03
2019-02-07T22:50:26.402Z,20.70
2019-02-07T22:52:57.058Z,21.03
2019-02-07T22:55:25.646Z,16.97
2019-02-07T22:57:54.323Z,17.03
2019-02-07T23:00:42.119Z,16.90
2019-02-07T23:03:18.728Z,21.57
2019-02-07T23:05:47.305Z,18.23
2019-02-07T23:08:16.033Z,18.17
2019-02-07T23:10:45.140Z,18.93
2019-02-07T23:13:13.800Z,21.20
2019-02-07T23:15:42.368Z,19.83
2019-02-07T23:18:11.096Z,20.40
2019-02-07T23:20:39.681Z,22.87
2019-02-07T23:23:10.472Z,19.10
2019-02-07T23:25:39.348Z,21.17
2019-02-07T23:28:08.876Z,18.07
2019-02-07T23:30:37.448Z,16.00
2019-02-07T23:33:06.500Z,18.17
2019-02-07T23:35:35.189Z,21.63
2019-02-07T23:38:04.348Z,19.97
2019-02-07T23:40:32.920Z,19.57
2019-02-07T23:43:01.509Z,25.60
2019-02-07T23:45:30.080Z,20.33
2019-02-07T23:47:58.664Z,21.43
2019-02-07T23:50:27.236Z,19.33
2019-02-07T23:52:55.828Z,24.67
2019-02-07T23:55:24.404Z,26.57
2019-02-07T23:57:53.064Z,24.83
